Mason City, Washington
Current Conditions -  °F | °C
As of 4:53 PM on Saturday 22 Nov 2014 (Local Time) from KOMK Reporting Station
Haze Haze  
Wind Chill: 31°   Ceiling: Unl
Heat Index: 31°   Visibility: 6mi
Dew Point: 29°   Wind: 3mph
Humidity: 92%   Direction: NA
Pressure: 29.82"   Gusts: NA
Location:  48.2566°N, 119.238°W
Report Text: KOMK 230053Z AUTO VRB03KT 6SM BR CLR M01/M02 A2982 RMK AO2 SLP113 T10061017
Loading
Personal Weather Stations






























Interactive Weather Map New forecast layout! Learn more

10-Day Weather Forecast

Advertisements
Track Severe Weather on mobile